sensor_id;sensor_type;location;lat;lon;timestamp;P1;durP1;ratioP1;P2;durP2;ratioP2
6149;SDS011;3106;42.670;23.318;2023-02-18T00:01:16;31.50;;;13.47;;
6149;SDS011;3106;42.670;23.318;2023-02-18T00:03:43;38.33;;;14.73;;
6149;SDS011;3106;42.670;23.318;2023-02-18T00:06:11;37.40;;;14.53;;
6149;SDS011;3106;42.670;23.318;2023-02-18T00:08:39;29.77;;;14.03;;
6149;SDS011;3106;42.670;23.318;2023-02-18T00:11:06;34.87;;;14.10;;
6149;SDS011;3106;42.670;23.318;2023-02-18T00:13:33;36.93;;;15.77;;
6149;SDS011;3106;42.670;23.318;2023-02-18T00:16:02;31.00;;;14.80;;
6149;SDS011;3106;42.670;23.318;2023-02-18T00:18:30;36.33;;;13.57;;
6149;SDS011;3106;42.670;23.318;2023-02-18T00:20:57;32.77;;;14.13;;
6149;SDS011;3106;42.670;23.318;2023-02-18T00:23:24;31.50;;;13.70;;
6149;SDS011;3106;42.670;23.318;2023-02-18T00:25:57;34.40;;;14.60;;
6149;SDS011;3106;42.670;23.318;2023-02-18T00:28:25;27.50;;;13.27;;
6149;SDS011;3106;42.670;23.318;2023-02-18T00:30:51;31.53;;;13.70;;
6149;SDS011;3106;42.670;23.318;2023-02-18T00:33:20;26.90;;;12.40;;
6149;SDS011;3106;42.670;23.318;2023-02-18T00:35:47;30.23;;;12.27;;
6149;SDS011;3106;42.670;23.318;2023-02-18T00:38:14;29.83;;;13.30;;
6149;SDS011;3106;42.670;23.318;2023-02-18T00:40:41;33.57;;;14.67;;
6149;SDS011;3106;42.670;23.318;2023-02-18T00:43:09;36.63;;;14.50;;
6149;SDS011;3106;42.670;23.318;2023-02-18T00:45:36;32.50;;;13.80;;
6149;SDS011;3106;42.670;23.318;2023-02-18T00:48:02;31.00;;;14.40;;
6149;SDS011;3106;42.670;23.318;2023-02-18T00:50:31;33.27;;;14.43;;
6149;SDS011;3106;42.670;23.318;2023-02-18T00:52:58;36.00;;;15.47;;
6149;SDS011;3106;42.670;23.318;2023-02-18T00:55:24;46.83;;;15.40;;
6149;SDS011;3106;42.670;23.318;2023-02-18T00:57:51;32.70;;;13.33;;
6149;SDS011;3106;42.670;23.318;2023-02-18T01:00:18;33.93;;;13.83;;
6149;SDS011;3106;42.670;23.318;2023-02-18T01:02:45;31.90;;;12.97;;
6149;SDS011;3106;42.670;23.318;2023-02-18T01:05:12;24.07;;;12.47;;
6149;SDS011;3106;42.670;23.318;2023-02-18T01:07:40;30.27;;;12.40;;
6149;SDS011;3106;42.670;23.318;2023-02-18T01:10:07;29.73;;;13.47;;
6149;SDS011;3106;42.670;23.318;2023-02-18T01:12:34;28.83;;;12.77;;
6149;SDS011;3106;42.670;23.318;2023-02-18T01:15:01;31.87;;;13.23;;
6149;SDS011;3106;42.670;23.318;2023-02-18T01:17:27;31.67;;;13.53;;
6149;SDS011;3106;42.670;23.318;2023-02-18T01:19:54;30.37;;;13.60;;
6149;SDS011;3106;42.670;23.318;2023-02-18T01:22:21;25.90;;;13.13;;
6149;SDS011;3106;42.670;23.318;2023-02-18T01:24:49;33.70;;;13.80;;
6149;SDS011;3106;42.670;23.318;2023-02-18T01:27:16;28.83;;;13.17;;
6149;SDS011;3106;42.670;23.318;2023-02-18T01:29:43;38.43;;;14.70;;
6149;SDS011;3106;42.670;23.318;2023-02-18T01:32:10;40.77;;;14.93;;
6149;SDS011;3106;42.670;23.318;2023-02-18T01:34:36;32.20;;;14.43;;
6149;SDS011;3106;42.670;23.318;2023-02-18T01:37:03;34.53;;;14.17;;
6149;SDS011;3106;42.670;23.318;2023-02-18T01:39:30;34.23;;;13.90;;
6149;SDS011;3106;42.670;23.318;2023-02-18T01:41:58;27.40;;;11.67;;
6149;SDS011;3106;42.670;23.318;2023-02-18T01:44:26;28.30;;;13.17;;
6149;SDS011;3106;42.670;23.318;2023-02-18T01:46:54;34.43;;;13.43;;
6149;SDS011;3106;42.670;23.318;2023-02-18T01:49:22;26.80;;;12.80;;
6149;SDS011;3106;42.670;23.318;2023-02-18T01:51:54;25.10;;;11.70;;
6149;SDS011;3106;42.670;23.318;2023-02-18T01:54:26;27.53;;;12.63;;
6149;SDS011;3106;42.670;23.318;2023-02-18T01:56:56;33.87;;;13.90;;
6149;SDS011;3106;42.670;23.318;2023-02-18T01:59:27;32.50;;;12.73;;
6149;SDS011;3106;42.670;23.318;2023-02-18T02:01:58;27.07;;;12.87;;
6149;SDS011;3106;42.670;23.318;2023-02-18T02:04:25;35.57;;;12.70;;
6149;SDS011;3106;42.670;23.318;2023-02-18T02:06:52;36.80;;;14.00;;
6149;SDS011;3106;42.670;23.318;2023-02-18T02:09:20;29.53;;;13.30;;
6149;SDS011;3106;42.670;23.318;2023-02-18T02:11:55;39.40;;;14.43;;
6149;SDS011;3106;42.670;23.318;2023-02-18T02:14:39;47.70;;;19.13;;
6149;SDS011;3106;42.670;23.318;2023-02-18T02:17:18;34.73;;;15.50;;
6149;SDS011;3106;42.670;23.318;2023-02-18T02:20:09;34.77;;;13.80;;
6149;SDS011;3106;42.670;23.318;2023-02-18T02:23:00;30.20;;;14.47;;
6149;SDS011;3106;42.670;23.318;2023-02-18T02:26:03;27.93;;;12.60;;
6149;SDS011;3106;42.670;23.318;2023-02-18T02:29:04;31.80;;;12.13;;
6149;SDS011;3106;42.670;23.318;2023-02-18T02:32:12;23.10;;;11.33;;
6149;SDS011;3106;42.670;23.318;2023-02-18T02:34:59;32.80;;;12.67;;
6149;SDS011;3106;42.670;23.318;2023-02-18T02:37:30;29.50;;;11.90;;
6149;SDS011;3106;42.670;23.318;2023-02-18T02:40:06;34.10;;;13.10;;
6149;SDS011;3106;42.670;23.318;2023-02-18T02:42:44;26.27;;;12.30;;
6149;SDS011;3106;42.670;23.318;2023-02-18T02:45:17;28.03;;;12.50;;
6149;SDS011;3106;42.670;23.318;2023-02-18T02:47:50;29.40;;;12.10;;
6149;SDS011;3106;42.670;23.318;2023-02-18T02:50:27;26.67;;;12.37;;
6149;SDS011;3106;42.670;23.318;2023-02-18T02:53:03;29.77;;;13.87;;
6149;SDS011;3106;42.670;23.318;2023-02-18T02:55:37;28.00;;;11.67;;
6149;SDS011;3106;42.670;23.318;2023-02-18T02:58:04;31.93;;;12.10;;
6149;SDS011;3106;42.670;23.318;2023-02-18T03:00:33;28.30;;;11.77;;
6149;SDS011;3106;42.670;23.318;2023-02-18T03:03:16;25.90;;;11.97;;
6149;SDS011;3106;42.670;23.318;2023-02-18T03:06:04;28.50;;;12.90;;
6149;SDS011;3106;42.670;23.318;2023-02-18T03:08:44;27.50;;;11.80;;
6149;SDS011;3106;42.670;23.318;2023-02-18T03:11:19;27.97;;;11.80;;
6149;SDS011;3106;42.670;23.318;2023-02-18T03:13:52;33.13;;;12.67;;
6149;SDS011;3106;42.670;23.318;2023-02-18T03:16:30;28.17;;;12.60;;
6149;SDS011;3106;42.670;23.318;2023-02-18T03:19:02;35.07;;;13.20;;
6149;SDS011;3106;42.670;23.318;2023-02-18T03:21:34;33.80;;;12.40;;
6149;SDS011;3106;42.670;23.318;2023-02-18T03:24:07;25.20;;;12.60;;
6149;SDS011;3106;42.670;23.318;2023-02-18T03:26:38;38.10;;;13.27;;
6149;SDS011;3106;42.670;23.318;2023-02-18T03:29:10;35.43;;;13.70;;
6149;SDS011;3106;42.670;23.318;2023-02-18T03:31:39;31.50;;;13.10;;
6149;SDS011;3106;42.670;23.318;2023-02-18T03:34:11;34.03;;;13.00;;
6149;SDS011;3106;42.670;23.318;2023-02-18T03:36:43;26.27;;;13.07;;
6149;SDS011;3106;42.670;23.318;2023-02-18T03:39:13;27.13;;;12.50;;
6149;SDS011;3106;42.670;23.318;2023-02-18T03:41:41;33.83;;;13.03;;
6149;SDS011;3106;42.670;23.318;2023-02-18T03:44:09;37.20;;;13.80;;
6149;SDS011;3106;42.670;23.318;2023-02-18T03:46:38;36.43;;;14.97;;
6149;SDS011;3106;42.670;23.318;2023-02-18T03:49:07;36.63;;;14.87;;
6149;SDS011;3106;42.670;23.318;2023-02-18T03:51:35;35.57;;;15.27;;
6149;SDS011;3106;42.670;23.318;2023-02-18T03:54:03;38.83;;;16.23;;
6149;SDS011;3106;42.670;23.318;2023-02-18T03:56:30;37.37;;;15.37;;
6149;SDS011;3106;42.670;23.318;2023-02-18T03:58:57;43.17;;;16.33;;
6149;SDS011;3106;42.670;23.318;2023-02-18T04:01:24;38.73;;;16.70;;
6149;SDS011;3106;42.670;23.318;2023-02-18T04:03:51;34.90;;;14.80;;
6149;SDS011;3106;42.670;23.318;2023-02-18T04:06:19;31.70;;;14.80;;
6149;SDS011;3106;42.670;23.318;2023-02-18T04:08:46;31.23;;;14.47;;
6149;SDS011;3106;42.670;23.318;2023-02-18T04:11:14;41.97;;;14.40;;
6149;SDS011;3106;42.670;23.318;2023-02-18T04:13:41;30.27;;;14.00;;
6149;SDS011;3106;42.670;23.318;2023-02-18T04:16:08;30.23;;;13.10;;
6149;SDS011;3106;42.670;23.318;2023-02-18T04:18:35;36.13;;;15.10;;
6149;SDS011;3106;42.670;23.318;2023-02-18T04:21:01;42.47;;;14.70;;
6149;SDS011;3106;42.670;23.318;2023-02-18T04:23:28;34.30;;;14.00;;
6149;SDS011;3106;42.670;23.318;2023-02-18T04:25:55;33.03;;;13.60;;
6149;SDS011;3106;42.670;23.318;2023-02-18T04:28:24;37.17;;;14.27;;
6149;SDS011;3106;42.670;23.318;2023-02-18T04:30:50;41.27;;;14.27;;
6149;SDS011;3106;42.670;23.318;2023-02-18T04:33:17;33.80;;;13.57;;
6149;SDS011;3106;42.670;23.318;2023-02-18T04:35:44;28.47;;;12.70;;
6149;SDS011;3106;42.670;23.318;2023-02-18T04:38:13;36.03;;;13.50;;
6149;SDS011;3106;42.670;23.318;2023-02-18T04:40:40;29.37;;;12.87;;
6149;SDS011;3106;42.670;23.318;2023-02-18T04:43:07;25.90;;;11.77;;
6149;SDS011;3106;42.670;23.318;2023-02-18T04:45:35;29.90;;;12.03;;
6149;SDS011;3106;42.670;23.318;2023-02-18T04:48:02;25.97;;;12.40;;
6149;SDS011;3106;42.670;23.318;2023-02-18T04:50:29;27.47;;;13.20;;
6149;SDS011;3106;42.670;23.318;2023-02-18T04:52:56;32.77;;;12.40;;
6149;SDS011;3106;42.670;23.318;2023-02-18T04:55:23;49.23;;;23.83;;
6149;SDS011;3106;42.670;23.318;2023-02-18T04:57:50;35.23;;;14.37;;
6149;SDS011;3106;42.670;23.318;2023-02-18T05:00:17;31.00;;;13.40;;
6149;SDS011;3106;42.670;23.318;2023-02-18T05:02:47;32.90;;;12.30;;
6149;SDS011;3106;42.670;23.318;2023-02-18T05:05:14;34.33;;;12.57;;
6149;SDS011;3106;42.670;23.318;2023-02-18T05:07:41;26.67;;;11.30;;
6149;SDS011;3106;42.670;23.318;2023-02-18T05:10:08;34.70;;;12.07;;
6149;SDS011;3106;42.670;23.318;2023-02-18T05:12:37;33.20;;;13.87;;
6149;SDS011;3106;42.670;23.318;2023-02-18T05:15:04;30.63;;;13.70;;
6149;SDS011;3106;42.670;23.318;2023-02-18T05:17:31;31.50;;;13.83;;
6149;SDS011;3106;42.670;23.318;2023-02-18T05:20:00;29.83;;;13.33;;
6149;SDS011;3106;42.670;23.318;2023-02-18T05:22:27;40.27;;;13.20;;
6149;SDS011;3106;42.670;23.318;2023-02-18T05:24:54;35.40;;;14.10;;
6149;SDS011;3106;42.670;23.318;2023-02-18T05:27:21;36.83;;;13.33;;
6149;SDS011;3106;42.670;23.318;2023-02-18T05:29:48;29.73;;;12.20;;
6149;SDS011;3106;42.670;23.318;2023-02-18T05:32:14;21.83;;;11.37;;
6149;SDS011;3106;42.670;23.318;2023-02-18T05:34:41;35.10;;;12.17;;
6149;SDS011;3106;42.670;23.318;2023-02-18T05:37:09;33.37;;;12.83;;
6149;SDS011;3106;42.670;23.318;2023-02-18T05:39:38;35.13;;;13.33;;
6149;SDS011;3106;42.670;23.318;2023-02-18T05:42:05;36.03;;;11.23;;
6149;SDS011;3106;42.670;23.318;2023-02-18T05:44:32;26.53;;;11.37;;
6149;SDS011;3106;42.670;23.318;2023-02-18T05:46:59;26.03;;;10.73;;
6149;SDS011;3106;42.670;23.318;2023-02-18T05:49:27;28.03;;;12.77;;
6149;SDS011;3106;42.670;23.318;2023-02-18T05:51:56;23.10;;;10.50;;
6149;SDS011;3106;42.670;23.318;2023-02-18T05:54:25;24.23;;;11.40;;
6149;SDS011;3106;42.670;23.318;2023-02-18T05:56:52;34.60;;;12.33;;
6149;SDS011;3106;42.670;23.318;2023-02-18T05:59:20;30.80;;;12.00;;
6149;SDS011;3106;42.670;23.318;2023-02-18T06:01:47;38.00;;;13.90;;
6149;SDS011;3106;42.670;23.318;2023-02-18T06:04:15;28.67;;;12.70;;
6149;SDS011;3106;42.670;23.318;2023-02-18T06:06:42;28.13;;;11.77;;
6149;SDS011;3106;42.670;23.318;2023-02-18T06:09:09;44.83;;;13.27;;
6149;SDS011;3106;42.670;23.318;2023-02-18T06:11:37;27.57;;;12.43;;
6149;SDS011;3106;42.670;23.318;2023-02-18T06:14:04;29.50;;;12.43;;
6149;SDS011;3106;42.670;23.318;2023-02-18T06:16:32;26.97;;;11.97;;
6149;SDS011;3106;42.670;23.318;2023-02-18T06:18:59;28.20;;;12.00;;
6149;SDS011;3106;42.670;23.318;2023-02-18T06:21:26;37.57;;;12.90;;
6149;SDS011;3106;42.670;23.318;2023-02-18T06:23:52;35.33;;;13.03;;
6149;SDS011;3106;42.670;23.318;2023-02-18T06:26:19;34.00;;;12.70;;
6149;SDS011;3106;42.670;23.318;2023-02-18T06:28:47;35.63;;;12.10;;
6149;SDS011;3106;42.670;23.318;2023-02-18T06:31:14;30.10;;;12.63;;
6149;SDS011;3106;42.670;23.318;2023-02-18T06:33:41;34.70;;;12.97;;
6149;SDS011;3106;42.670;23.318;2023-02-18T06:36:09;31.63;;;12.20;;
6149;SDS011;3106;42.670;23.318;2023-02-18T06:38:38;28.07;;;12.43;;
6149;SDS011;3106;42.670;23.318;2023-02-18T06:41:08;25.17;;;12.60;;
6149;SDS011;3106;42.670;23.318;2023-02-18T06:43:35;28.63;;;11.80;;
6149;SDS011;3106;42.670;23.318;2023-02-18T06:46:04;40.10;;;13.90;;
6149;SDS011;3106;42.670;23.318;2023-02-18T06:48:32;27.37;;;11.23;;
6149;SDS011;3106;42.670;23.318;2023-02-18T06:50:58;32.37;;;13.23;;
6149;SDS011;3106;42.670;23.318;2023-02-18T06:53:25;29.80;;;12.50;;
6149;SDS011;3106;42.670;23.318;2023-02-18T06:55:52;25.10;;;11.30;;
6149;SDS011;3106;42.670;23.318;2023-02-18T06:58:19;28.17;;;12.30;;
6149;SDS011;3106;42.670;23.318;2023-02-18T07:00:47;29.90;;;12.20;;
6149;SDS011;3106;42.670;23.318;2023-02-18T07:03:15;23.97;;;10.93;;
6149;SDS011;3106;42.670;23.318;2023-02-18T07:05:42;26.27;;;11.70;;
6149;SDS011;3106;42.670;23.318;2023-02-18T07:08:09;28.80;;;12.30;;
6149;SDS011;3106;42.670;23.318;2023-02-18T07:10:36;31.03;;;11.87;;
6149;SDS011;3106;42.670;23.318;2023-02-18T07:13:02;33.47;;;13.80;;
6149;SDS011;3106;42.670;23.318;2023-02-18T07:15:30;30.70;;;12.97;;
6149;SDS011;3106;42.670;23.318;2023-02-18T07:17:56;29.93;;;12.27;;
6149;SDS011;3106;42.670;23.318;2023-02-18T07:20:25;35.97;;;13.27;;
6149;SDS011;3106;42.670;23.318;2023-02-18T07:22:52;36.80;;;15.17;;
6149;SDS011;3106;42.670;23.318;2023-02-18T07:25:20;32.93;;;13.47;;
6149;SDS011;3106;42.670;23.318;2023-02-18T07:27:46;33.43;;;12.87;;
6149;SDS011;3106;42.670;23.318;2023-02-18T07:30:14;30.20;;;13.60;;
6149;SDS011;3106;42.670;23.318;2023-02-18T07:32:41;32.90;;;14.77;;
6149;SDS011;3106;42.670;23.318;2023-02-18T07:35:09;43.10;;;13.87;;
6149;SDS011;3106;42.670;23.318;2023-02-18T07:37:40;32.10;;;13.80;;
6149;SDS011;3106;42.670;23.318;2023-02-18T07:40:10;49.23;;;13.83;;
6149;SDS011;3106;42.670;23.318;2023-02-18T07:42:39;29.40;;;13.07;;
6149;SDS011;3106;42.670;23.318;2023-02-18T07:45:06;36.60;;;13.33;;
6149;SDS011;3106;42.670;23.318;2023-02-18T07:47:34;46.43;;;15.30;;
6149;SDS011;3106;42.670;23.318;2023-02-18T07:50:01;38.67;;;13.73;;
6149;SDS011;3106;42.670;23.318;2023-02-18T07:52:27;42.20;;;15.17;;
6149;SDS011;3106;42.670;23.318;2023-02-18T07:54:56;38.33;;;13.93;;
6149;SDS011;3106;42.670;23.318;2023-02-18T07:57:23;33.60;;;14.00;;
6149;SDS011;3106;42.670;23.318;2023-02-18T07:59:50;32.20;;;14.13;;
6149;SDS011;3106;42.670;23.318;2023-02-18T08:02:17;41.27;;;15.10;;
6149;SDS011;3106;42.670;23.318;2023-02-18T08:04:46;28.20;;;14.27;;
6149;SDS011;3106;42.670;23.318;2023-02-18T08:07:14;31.90;;;14.00;;
6149;SDS011;3106;42.670;23.318;2023-02-18T08:09:42;36.40;;;14.77;;
6149;SDS011;3106;42.670;23.318;2023-02-18T08:12:11;34.43;;;14.57;;
6149;SDS011;3106;42.670;23.318;2023-02-18T08:14:38;37.30;;;15.10;;
6149;SDS011;3106;42.670;23.318;2023-02-18T08:17:06;43.67;;;15.03;;
6149;SDS011;3106;42.670;23.318;2023-02-18T08:19:33;42.60;;;16.40;;
6149;SDS011;3106;42.670;23.318;2023-02-18T08:22:00;36.23;;;15.83;;
6149;SDS011;3106;42.670;23.318;2023-02-18T08:24:28;39.67;;;16.10;;
6149;SDS011;3106;42.670;23.318;2023-02-18T08:26:55;32.33;;;15.13;;
6149;SDS011;3106;42.670;23.318;2023-02-18T08:29:23;34.70;;;15.77;;
6149;SDS011;3106;42.670;23.318;2023-02-18T08:31:50;46.30;;;14.40;;
6149;SDS011;3106;42.670;23.318;2023-02-18T08:34:18;40.47;;;14.27;;
6149;SDS011;3106;42.670;23.318;2023-02-18T08:36:45;35.77;;;13.87;;
6149;SDS011;3106;42.670;23.318;2023-02-18T08:39:12;38.73;;;14.13;;
6149;SDS011;3106;42.670;23.318;2023-02-18T08:41:38;31.87;;;14.50;;
6149;SDS011;3106;42.670;23.318;2023-02-18T08:44:05;27.80;;;13.10;;
6149;SDS011;3106;42.670;23.318;2023-02-18T08:46:34;31.30;;;13.93;;
6149;SDS011;3106;42.670;23.318;2023-02-18T08:49:01;34.07;;;14.97;;
6149;SDS011;3106;42.670;23.318;2023-02-18T08:51:28;36.50;;;14.83;;
6149;SDS011;3106;42.670;23.318;2023-02-18T08:53:55;52.33;;;15.00;;
6149;SDS011;3106;42.670;23.318;2023-02-18T08:56:22;41.63;;;15.57;;
6149;SDS011;3106;42.670;23.318;2023-02-18T08:58:49;43.40;;;15.80;;
6149;SDS011;3106;42.670;23.318;2023-02-18T09:01:16;32.70;;;14.60;;
6149;SDS011;3106;42.670;23.318;2023-02-18T09:03:44;41.27;;;15.57;;
6149;SDS011;3106;42.670;23.318;2023-02-18T09:06:12;44.67;;;14.83;;
6149;SDS011;3106;42.670;23.318;2023-02-18T09:08:39;46.67;;;14.93;;
6149;SDS011;3106;42.670;23.318;2023-02-18T09:11:05;35.63;;;15.57;;
6149;SDS011;3106;42.670;23.318;2023-02-18T09:13:35;38.27;;;14.40;;
6149;SDS011;3106;42.670;23.318;2023-02-18T09:16:03;60.43;;;19.83;;
6149;SDS011;3106;42.670;23.318;2023-02-18T09:18:31;40.03;;;16.33;;
6149;SDS011;3106;42.670;23.318;2023-02-18T09:21:01;46.07;;;15.30;;
6149;SDS011;3106;42.670;23.318;2023-02-18T09:23:29;33.93;;;15.03;;
6149;SDS011;3106;42.670;23.318;2023-02-18T09:25:57;29.93;;;14.50;;
6149;SDS011;3106;42.670;23.318;2023-02-18T09:28:25;39.50;;;14.23;;
6149;SDS011;3106;42.670;23.318;2023-02-18T09:30:52;31.57;;;14.83;;
6149;SDS011;3106;42.670;23.318;2023-02-18T09:33:19;35.10;;;14.30;;
6149;SDS011;3106;42.670;23.318;2023-02-18T09:35:46;37.63;;;15.20;;
6149;SDS011;3106;42.670;23.318;2023-02-18T09:38:15;44.07;;;15.40;;
6149;SDS011;3106;42.670;23.318;2023-02-18T09:40:43;32.83;;;14.17;;
6149;SDS011;3106;42.670;23.318;2023-02-18T09:43:17;35.27;;;14.40;;
6149;SDS011;3106;42.670;23.318;2023-02-18T09:45:51;36.00;;;15.93;;
6149;SDS011;3106;42.670;23.318;2023-02-18T09:48:20;37.80;;;15.20;;
6149;SDS011;3106;42.670;23.318;2023-02-18T09:50:53;33.50;;;14.30;;
6149;SDS011;3106;42.670;23.318;2023-02-18T09:53:22;47.03;;;14.60;;
6149;SDS011;3106;42.670;23.318;2023-02-18T09:55:50;34.73;;;15.77;;
6149;SDS011;3106;42.670;23.318;2023-02-18T09:58:18;39.43;;;15.23;;
6149;SDS011;3106;42.670;23.318;2023-02-18T10:00:47;49.27;;;16.00;;
6149;SDS011;3106;42.670;23.318;2023-02-18T10:03:18;52.97;;;16.60;;
6149;SDS011;3106;42.670;23.318;2023-02-18T10:05:50;31.90;;;14.93;;
6149;SDS011;3106;42.670;23.318;2023-02-18T10:08:25;44.47;;;16.57;;
6149;SDS011;3106;42.670;23.318;2023-02-18T10:10:54;39.10;;;15.47;;
6149;SDS011;3106;42.670;23.318;2023-02-18T10:13:22;36.40;;;15.13;;
6149;SDS011;3106;42.670;23.318;2023-02-18T10:15:51;29.03;;;14.53;;
6149;SDS011;3106;42.670;23.318;2023-02-18T10:18:23;32.27;;;14.03;;
6149;SDS011;3106;42.670;23.318;2023-02-18T10:20:56;36.90;;;13.37;;
6149;SDS011;3106;42.670;23.318;2023-02-18T10:23:31;36.33;;;13.40;;
6149;SDS011;3106;42.670;23.318;2023-02-18T10:26:02;28.30;;;13.77;;
6149;SDS011;3106;42.670;23.318;2023-02-18T10:28:32;24.97;;;12.33;;
6149;SDS011;3106;42.670;23.318;2023-02-18T10:31:02;38.63;;;11.90;;
6149;SDS011;3106;42.670;23.318;2023-02-18T10:33:35;34.80;;;12.50;;
6149;SDS011;3106;42.670;23.318;2023-02-18T10:36:15;33.93;;;12.53;;
6149;SDS011;3106;42.670;23.318;2023-02-18T10:38:56;28.63;;;14.30;;
6149;SDS011;3106;42.670;23.318;2023-02-18T10:41:41;34.73;;;14.67;;
6149;SDS011;3106;42.670;23.318;2023-02-18T10:44:16;45.17;;;15.17;;
6149;SDS011;3106;42.670;23.318;2023-02-18T10:46:54;45.17;;;13.90;;
6149;SDS011;3106;42.670;23.318;2023-02-18T10:49:33;32.77;;;13.87;;
6149;SDS011;3106;42.670;23.318;2023-02-18T10:52:15;36.87;;;14.10;;
6149;SDS011;3106;42.670;23.318;2023-02-18T10:54:48;38.90;;;14.43;;
6149;SDS011;3106;42.670;23.318;2023-02-18T10:57:23;37.27;;;13.83;;
6149;SDS011;3106;42.670;23.318;2023-02-18T10:59:54;27.70;;;13.10;;
6149;SDS011;3106;42.670;23.318;2023-02-18T11:02:26;27.67;;;13.33;;
6149;SDS011;3106;42.670;23.318;2023-02-18T11:04:56;27.43;;;13.07;;
6149;SDS011;3106;42.670;23.318;2023-02-18T11:07:28;30.20;;;12.60;;
6149;SDS011;3106;42.670;23.318;2023-02-18T11:10:00;46.60;;;14.10;;
6149;SDS011;3106;42.670;23.318;2023-02-18T11:12:42;26.30;;;12.47;;
6149;SDS011;3106;42.670;23.318;2023-02-18T11:15:19;25.43;;;11.20;;
6149;SDS011;3106;42.670;23.318;2023-02-18T11:17:49;41.77;;;12.60;;
6149;SDS011;3106;42.670;23.318;2023-02-18T11:20:22;22.60;;;9.60;;
6149;SDS011;3106;42.670;23.318;2023-02-18T11:22:54;22.83;;;10.83;;
6149;SDS011;3106;42.670;23.318;2023-02-18T11:25:25;33.23;;;10.63;;
6149;SDS011;3106;42.670;23.318;2023-02-18T11:27:57;19.60;;;9.27;;
6149;SDS011;3106;42.670;23.318;2023-02-18T11:30:29;11.13;;;5.17;;
6149;SDS011;3106;42.670;23.318;2023-02-18T11:32:58;10.97;;;5.37;;
6149;SDS011;3106;42.670;23.318;2023-02-18T11:35:28;12.77;;;5.80;;
6149;SDS011;3106;42.670;23.318;2023-02-18T11:37:59;11.60;;;5.23;;
6149;SDS011;3106;42.670;23.318;2023-02-18T11:40:31;17.63;;;6.63;;
6149;SDS011;3106;42.670;23.318;2023-02-18T11:43:03;12.17;;;6.60;;
6149;SDS011;3106;42.670;23.318;2023-02-18T11:45:33;13.27;;;5.40;;
6149;SDS011;3106;42.670;23.318;2023-02-18T11:48:01;11.77;;;4.90;;
6149;SDS011;3106;42.670;23.318;2023-02-18T11:50:33;9.20;;;4.70;;
6149;SDS011;3106;42.670;23.318;2023-02-18T11:53:01;7.27;;;3.23;;
6149;SDS011;3106;42.670;23.318;2023-02-18T11:56:00;3.97;;;2.70;;
6149;SDS011;3106;42.670;23.318;2023-02-18T11:58:32;8.73;;;3.40;;
6149;SDS011;3106;42.670;23.318;2023-02-18T12:01:03;5.00;;;2.90;;
6149;SDS011;3106;42.670;23.318;2023-02-18T12:03:39;5.63;;;2.77;;
6149;SDS011;3106;42.670;23.318;2023-02-18T12:06:11;5.77;;;3.10;;
6149;SDS011;3106;42.670;23.318;2023-02-18T12:08:44;6.73;;;3.40;;
6149;SDS011;3106;42.670;23.318;2023-02-18T12:11:17;5.57;;;3.67;;
6149;SDS011;3106;42.670;23.318;2023-02-18T12:13:52;10.27;;;3.27;;
6149;SDS011;3106;42.670;23.318;2023-02-18T12:16:23;8.60;;;3.83;;
6149;SDS011;3106;42.670;23.318;2023-02-18T12:19:07;5.80;;;3.90;;
6149;SDS011;3106;42.670;23.318;2023-02-18T12:21:47;7.10;;;4.00;;
6149;SDS011;3106;42.670;23.318;2023-02-18T12:24:30;5.70;;;3.03;;
6149;SDS011;3106;42.670;23.318;2023-02-18T12:27:10;5.50;;;3.20;;
6149;SDS011;3106;42.670;23.318;2023-02-18T12:29:55;13.53;;;3.93;;
6149;SDS011;3106;42.670;23.318;2023-02-18T12:32:39;9.20;;;3.70;;
6149;SDS011;3106;42.670;23.318;2023-02-18T12:35:17;6.73;;;3.90;;
6149;SDS011;3106;42.670;23.318;2023-02-18T12:38:03;23.17;;;5.10;;
6149;SDS011;3106;42.670;23.318;2023-02-18T12:40:49;14.50;;;5.70;;
6149;SDS011;3106;42.670;23.318;2023-02-18T12:43:29;16.27;;;4.60;;
6149;SDS011;3106;42.670;23.318;2023-02-18T12:46:12;12.90;;;5.43;;
6149;SDS011;3106;42.670;23.318;2023-02-18T12:48:55;7.93;;;4.60;;
6149;SDS011;3106;42.670;23.318;2023-02-18T12:51:41;7.30;;;3.77;;
6149;SDS011;3106;42.670;23.318;2023-02-18T12:54:26;8.40;;;4.10;;
6149;SDS011;3106;42.670;23.318;2023-02-18T12:57:11;22.77;;;8.27;;
6149;SDS011;3106;42.670;23.318;2023-02-18T13:00:03;9.43;;;4.40;;
6149;SDS011;3106;42.670;23.318;2023-02-18T13:02:52;12.83;;;4.93;;
6149;SDS011;3106;42.670;23.318;2023-02-18T13:05:37;8.90;;;4.00;;
6149;SDS011;3106;42.670;23.318;2023-02-18T13:08:20;12.53;;;4.33;;
6149;SDS011;3106;42.670;23.318;2023-02-18T13:11:00;4.50;;;3.10;;
6149;SDS011;3106;42.670;23.318;2023-02-18T13:13:39;9.73;;;4.87;;
6149;SDS011;3106;42.670;23.318;2023-02-18T13:16:15;11.73;;;4.27;;
6149;SDS011;3106;42.670;23.318;2023-02-18T13:18:46;5.60;;;3.50;;
6149;SDS011;3106;42.670;23.318;2023-02-18T13:21:23;10.27;;;3.67;;
6149;SDS011;3106;42.670;23.318;2023-02-18T13:23:52;14.70;;;4.27;;
6149;SDS011;3106;42.670;23.318;2023-02-18T13:26:23;8.57;;;3.80;;
6149;SDS011;3106;42.670;23.318;2023-02-18T13:28:54;8.10;;;3.60;;
6149;SDS011;3106;42.670;23.318;2023-02-18T13:31:38;14.13;;;4.00;;
6149;SDS011;3106;42.670;23.318;2023-02-18T13:34:14;5.93;;;3.40;;
6149;SDS011;3106;42.670;23.318;2023-02-18T13:36:50;10.50;;;4.53;;
6149;SDS011;3106;42.670;23.318;2023-02-18T13:39:27;12.20;;;5.63;;
6149;SDS011;3106;42.670;23.318;2023-02-18T13:42:09;8.97;;;5.53;;
6149;SDS011;3106;42.670;23.318;2023-02-18T13:45:01;9.57;;;5.10;;
6149;SDS011;3106;42.670;23.318;2023-02-18T13:47:47;9.00;;;5.03;;
6149;SDS011;3106;42.670;23.318;2023-02-18T13:50:21;17.00;;;5.10;;
6149;SDS011;3106;42.670;23.318;2023-02-18T13:52:52;12.00;;;5.70;;
6149;SDS011;3106;42.670;23.318;2023-02-18T13:55:26;8.93;;;4.77;;
6149;SDS011;3106;42.670;23.318;2023-02-18T13:58:04;12.33;;;4.80;;
6149;SDS011;3106;42.670;23.318;2023-02-18T14:00:48;11.60;;;5.30;;
6149;SDS011;3106;42.670;23.318;2023-02-18T14:03:30;14.03;;;5.00;;
6149;SDS011;3106;42.670;23.318;2023-02-18T14:06:00;11.27;;;5.30;;
6149;SDS011;3106;42.670;23.318;2023-02-18T14:08:28;10.87;;;5.97;;
6149;SDS011;3106;42.670;23.318;2023-02-18T14:14:13;17.37;;;5.97;;
6149;SDS011;3106;42.670;23.318;2023-02-18T14:19:58;12.37;;;5.20;;
6149;SDS011;3106;42.670;23.318;2023-02-18T14:22:57;10.17;;;5.23;;
6149;SDS011;3106;42.670;23.318;2023-02-18T14:25:30;16.90;;;5.60;;
6149;SDS011;3106;42.670;23.318;2023-02-18T14:28:02;9.70;;;5.30;;
6149;SDS011;3106;42.670;23.318;2023-02-18T14:30:50;11.93;;;5.87;;
6149;SDS011;3106;42.670;23.318;2023-02-18T14:33:18;9.73;;;5.07;;
6149;SDS011;3106;42.670;23.318;2023-02-18T14:35:49;9.63;;;5.10;;
6149;SDS011;3106;42.670;23.318;2023-02-18T14:38:25;9.90;;;5.30;;
6149;SDS011;3106;42.670;23.318;2023-02-18T14:41:10;13.37;;;5.30;;
6149;SDS011;3106;42.670;23.318;2023-02-18T14:43:51;10.50;;;4.90;;
6149;SDS011;3106;42.670;23.318;2023-02-18T14:46:32;18.53;;;7.53;;
6149;SDS011;3106;42.670;23.318;2023-02-18T14:49:16;9.83;;;5.47;;
6149;SDS011;3106;42.670;23.318;2023-02-18T14:51:53;14.33;;;5.80;;
6149;SDS011;3106;42.670;23.318;2023-02-18T14:54:23;14.20;;;5.30;;
6149;SDS011;3106;42.670;23.318;2023-02-18T14:56:53;9.10;;;5.53;;
6149;SDS011;3106;42.670;23.318;2023-02-18T14:59:23;20.07;;;6.77;;
6149;SDS011;3106;42.670;23.318;2023-02-18T15:01:53;9.50;;;5.60;;
6149;SDS011;3106;42.670;23.318;2023-02-18T15:04:20;11.23;;;6.27;;
6149;SDS011;3106;42.670;23.318;2023-02-18T15:06:58;12.67;;;7.40;;
6149;SDS011;3106;42.670;23.318;2023-02-18T15:09:26;15.83;;;5.53;;